Dublin, IN (47335)

9:50 AM EDT on September 03, 2015 (GMT -0400)
Fairholme Farms | | Change Station
CLOSE
Current Station
Personal Weather Station
Location: Lewisville, IN
Elevation: 1050 ft
Nearby Weather Stations

Elev 1050 ft 39.79 °N, 85.35 °W | Updated 2 minutes ago

Clear
Clear
73.9 °F
Feels Like 71 °F
N
0.0
Wind Variable Wind from West
Gusts 1.0 mph

Today
High -- | Low -- °F
--% Chance of Precip.
Yesterday
High -- | Low -- °F
Precip. -- in
7:10 AM 8:09 PM
Waning Gibbous, 70% visible
Pressure 30.06 in
Visibility 7.0 miles
Clouds Scattered Clouds 5000 ft
Heat Index 71 °F
Dew Point 72 °F
Humidity 95%
Rainfall 0.00 in
Snow Depth Not available.
UV 1 out of 12
Pollen 10.50 out of 12
Air Quality Not available.
Flu Activity Not available.
METAR KAID 031246Z 00000KT 7SM SCT050 22/20 A3006
Pressure 30.06 in
Visibility 7.0 miles
Clouds Scattered Clouds 5000 ft
Heat Index 71 °F
Dew Point 72 °F
Humidity 95%
Rainfall 0.00 in
Snow Depth Not available.
UV 1 out of 12
Pollen 10.50 out of 12
Air Quality Not available.
Flu Activity Not available.
METAR KAID 031246Z 00000KT 7SM SCT050 22/20 A3006

10-Day Weather Forecast

×

Almanac

Astronomy

Sep. 03, 2015 Rise Set
Actual Time
Civil Twilight
Nautical Twilight
Astronomical Twilight
Moon
Length of Visible Light
Length of Day
Tomorrow will be .
, % of the Moon is Illuminated

Today's Extremes

State Highs State Lows

Community

WunderPhotos

Upload Photos

1,851,952 photos uploaded!

WunderBlogs® & News

Nearby

Air Quality

  Air Quality AQ Index Pollutant
Not available.

Snow Depth

Station Depth Elevation

Earthquake Activity

City Distance Mag. Time & Date
Minimum magnitude displayed is 2.5.

Coastal Water Temperatures

Place Temperature

Stations

Nearby Weather Stations

Station Location Temp. Windchill Dew Point Humidity Wind Precip. Elev Updated Type